Windhoek — 3FWJ3 — position and weather

sailwx.info

Track history (hours):
 
Tides and Currents Weather Stations Pressure Air Temp Water Temp Dewpoint Dewpoint Depression Visibility Wind Speed Wind Dir Waves Ship Positions

Windhoek

Last reported at 2016-Aug-31 17:27 UTC. Time now 2016-Aug-31 23:34 UTC.
Position N 53°59' W 005°10'.

Length 172 m; draft 7.7 m.

Type: Ship (hazmat cat C). MMSI: 370431000.

Date/timePositionNaut miles runAvg speedWind from/ knotsBaromVisibWave heightAir tempDewpointWater temp
2016-Aug-31 17:27N 53°59' W 005°10'1516.5
2016-Aug-31 16:33N 54°13' W 005°08'1717.0
2016-Aug-31 15:33N 54°30' W 005°09'1615.8
2016-Aug-31 14:33N 54°45' W 005°18'1414.0
2016-Aug-31 13:33N 54°59' W 005°22'62 4.3
2016-Aug-30 23:16N 55°58' W 004°53'1 1.5
2016-Aug-30 22:33N 55°58' W 004°51'8 7.0
2016-Aug-30 21:23N 55°50' W 004°57'15 1.2
2016-Aug-30 09:09N 55°36' W 005°07'3 0.3
2016-Aug-29 21:33N 55°34' W 005°02'3316.7
2016-Aug-29 19:34N 55°03' W 005°20'1818.1
2016-Aug-29 18:33N 54°47' W 005°35'1212.2
2016-Aug-29 17:33N 54°39' W 005°52'1 1.2
2016-Aug-29 16:25N 54°38' W 005°53'0 0.0
2016-Aug-29 15:07N 54°38' W 005°53'0 0.0
2016-Aug-29 14:31N 54°38' W 005°53'0 0.0
2016-Aug-29 13:31N 54°38' W 005°53'0 0.0
2016-Aug-29 12:28N 54°38' W 005°53'0 0.0
2016-Aug-29 11:25N 54°38' W 005°53'0 0.0
2016-Aug-29 10:25N 54°38' W 005°53'0 0.0
2016-Aug-29 09:31N 54°38' W 005°53'0 0.0
2016-Aug-29 08:31N 54°38' W 005°53'0 0.0
2016-Aug-29 07:31N 54°38' W 005°53'0 0.0
2016-Aug-29 06:31N 54°38' W 005°53'0 0.0
2016-Aug-29 04:28N 54°38' W 005°53'0 0.5
2016-Aug-29 03:34N 54°38' W 005°52'8 8.3
2016-Aug-29 02:34N 54°43' W 005°40'1111.0
2016-Aug-29 01:34N 54°41' W 005°22'1515.2
2016-Aug-29 00:33N 54°28' W 005°08'1414.0
2016-Aug-28 23:34N 54°14' W 005°06'1715.1
2016-Aug-28 22:28N 53°59' W 005°19'1715.1
2016-Aug-28 21:19N 53°44' W 005°33'18 0.8
2016-Aug-27 21:17N 53°26' W 005°42'2915.9
2016-Aug-27 19:26N 53°37' W 004°56'2115.3
2016-Aug-27 18:03N 53°35' W 004°20'715.0
2016-Aug-27 17:33N 53°35' W 004°07'1515.0
2016-Aug-27 16:33N 53°34' W 003°42'1616.0
2016-Aug-27 15:33N 53°31' W 003°15'9 8.8
2016-Aug-27 14:33N 53°27' W 003°02'1 0.8
2016-Aug-27 13:33N 53°27' W 003°01'1 0.6
2016-Aug-27 12:33N 53°28' W 003°02'0 0.0
2016-Aug-27 11:33N 53°28' W 003°02'0 0.0
2016-Aug-27 10:33N 53°28' W 003°02'0 0.0
2016-Aug-27 09:30N 53°28' W 003°02'0 0.0
2016-Aug-27 08:33N 53°28' W 003°02'0 0.0
2016-Aug-27 07:33N 53°28' W 003°02'0 0.0
2016-Aug-27 06:27N 53°28' W 003°02'0 0.0
2016-Aug-27 04:33N 53°28' W 003°02'0 0.0
2016-Aug-27 03:33N 53°28' W 003°02'0 0.0
2016-Aug-27 02:33N 53°28' W 003°02'0 0.0
2016-Aug-27 01:30N 53°28' W 003°02'0 0.0
2016-Aug-27 00:33N 53°28' W 003°02'0 0.0
2016-Aug-26 23:30N 53°28' W 003°02'0 0.0
2016-Aug-26 22:33N 53°28' W 003°02'0 0.0
2016-Aug-26 21:30N 53°28' W 003°02'0 0.0
2016-Aug-26 20:33N 53°28' W 003°02'0 0.0
2016-Aug-26 19:30N 53°28' W 003°02'0 0.0
2016-Aug-26 18:33N 53°28' W 003°02'0 0.0
2016-Aug-26 17:33N 53°28' W 003°02'0 0.0
2016-Aug-26 16:30N 53°28' W 003°02'0 0.0
2016-Aug-26 15:24N 53°28' W 003°02'0 0.0
2016-Aug-26 14:33N 53°28' W 003°02'0 0.0
2016-Aug-26 13:33N 53°28' W 003°02'0 0.0
2016-Aug-26 12:33N 53°28' W 003°02'0 0.0
2016-Aug-26 11:33N 53°28' W 003°02'0 0.0
2016-Aug-26 10:33N 53°28' W 003°02'0 0.0
2016-Aug-26 09:27N 53°28' W 003°02'0 0.0
2016-Aug-26 08:30N 53°28' W 003°02'0 0.0
2016-Aug-26 07:33N 53°28' W 003°02'0 0.0
2016-Aug-26 06:33N 53°28' W 003°02'0 0.0
2016-Aug-26 04:33N 53°28' W 003°02'0 0.0
2016-Aug-26 03:33N 53°28' W 003°02'0 0.0
2016-Aug-26 02:33N 53°28' W 003°02'0 0.3
2016-Aug-26 01:33N 53°27' W 003°01'1 0.6
2016-Aug-26 00:33N 53°27' W 003°01'3 3.4
2016-Aug-25 23:33N 53°29' W 003°05'8 7.9
2016-Aug-25 22:34N 53°31' W 003°18'6 5.4
2016-Aug-25 21:32N 53°28' W 003°26'0 0.0
2016-Aug-25 20:32N 53°28' W 003°26'0 0.0
2016-Aug-25 19:32N 53°28' W 003°26'0 0.0
2016-Aug-25 18:29N 53°28' W 003°26'0 0.0
2016-Aug-25 17:32N 53°28' W 003°26'0 0.0
2016-Aug-25 16:32N 53°28' W 003°26'0 0.1
2016-Aug-25 15:33N 53°28' W 003°25'6 6.4
2016-Aug-25 14:33N 53°31' W 003°36'1615.6
2016-Aug-25 13:33N 53°30' W 004°02'2019.8
2016-Aug-25 12:33N 53°29' W 004°35'2019.5
2016-Aug-25 11:33N 53°16' W 004°59'9217.3
2016-Aug-25 06:12N 51°49' W 005°48'2917.6
2016-Aug-25 04:33N 51°20' W 005°53'1818.3
2016-Aug-25 03:33N 51°02' W 005°53'1818.0
2016-Aug-25 02:33N 50°43' W 005°54'1817.8
2016-Aug-25 01:33N 50°26' W 005°54'1717.3
2016-Aug-25 00:33N 50°08' W 005°54'1514.3
2016-Aug-24 23:32N 49°54' W 005°47'1718.0
2016-Aug-24 22:33N 49°54' W 005°20'1817.8
2016-Aug-24 21:33N 49°55' W 004°53'1818.0
2016-Aug-24 20:33N 49°55' W 004°25'1818.2
2016-Aug-24 19:33N 49°55' W 003°56'1919.2
2016-Aug-24 18:33N 49°55' W 003°26'2020.0
2016-Aug-24 17:33N 49°59' W 002°56'2120.7
2016-Aug-24 16:33N 50°06' W 002°25'3918.7
2016-Aug-24 14:29N 50°17' W 001°28'1617.2
2016-Aug-24 13:33N 50°29' W 001°11'1515.0
2016-Aug-24 12:33N 50°41' W 000°58'1212.1
2016-Aug-24 11:33N 50°46' W 001°15'9 8.7
2016-Aug-24 10:33N 50°53' W 001°24'3 2.7
2016-Aug-24 09:33N 50°54' W 001°28'0 0.0
2016-Aug-24 08:33N 50°54' W 001°28'0 0.0
2016-Aug-24 07:30N 50°54' W 001°28'0 0.0
2016-Aug-24 06:33N 50°54' W 001°28'0 0.0
2016-Aug-24 04:06N 50°54' W 001°28'0 0.0
2016-Aug-24 03:33N 50°54' W 001°28'0 0.0
2016-Aug-24 02:33N 50°54' W 001°28'0 0.0
2016-Aug-24 01:33N 50°54' W 001°28'0 0.0
2016-Aug-24 00:33N 50°54' W 001°28'0 0.0
2016-Aug-23 23:30N 50°54' W 001°28'0 0.0
2016-Aug-23 22:33N 50°54' W 001°28'0 0.0
2016-Aug-23 21:33N 50°54' W 001°28'0 0.0
2016-Aug-23 20:33N 50°54' W 001°28'1 0.8
2016-Aug-23 19:33N 50°54' W 001°26'8 7.9
2016-Aug-23 18:33N 50°49' W 001°18'1010.5
2016-Aug-23 17:33N 50°44' W 001°03'6 5.5
2016-Aug-23 16:33N 50°38' W 001°02'2 1.9
2016-Aug-23 15:31N 50°38' W 001°05'0 0.1
2016-Aug-23 14:28N 50°38' W 001°05'0 0.1
2016-Aug-23 13:31N 50°38' W 001°04'0 0.1
2016-Aug-23 12:31N 50°38' W 001°04'0 0.0
2016-Aug-23 11:31N 50°38' W 001°04'0 0.0
2016-Aug-23 10:31N 50°38' W 001°04'0 0.0
2016-Aug-23 09:31N 50°38' W 001°04'0 0.1
2016-Aug-23 08:31N 50°38' W 001°04'0 0.2
2016-Aug-23 07:31N 50°38' W 001°05'0 0.0
2016-Aug-23 06:31N 50°38' W 001°05'0 0.0
2016-Aug-23 05:31N 50°38' W 001°05'0 0.0
2016-Aug-23 04:31N 50°38' W 001°05'0 0.0
2016-Aug-23 03:31N 50°38' W 001°05'0 0.1
2016-Aug-23 02:31N 50°38' W 001°05'0 0.1
2016-Aug-23 01:31N 50°38' W 001°04'0 0.1
2016-Aug-23 00:31N 50°38' W 001°04'0 0.0
2016-Aug-22 23:31N 50°38' W 001°04'0 0.0
2016-Aug-22 22:31N 50°38' W 001°04'0 0.0
2016-Aug-22 21:31N 50°38' W 001°04'0 0.0
2016-Aug-22 20:31N 50°38' W 001°04'0 0.0
2016-Aug-22 19:31N 50°38' W 001°04'0 0.2
2016-Aug-22 18:31N 50°38' W 001°05'0 0.0
2016-Aug-22 17:31N 50°38' W 001°05'0 0.0
2016-Aug-22 16:31N 50°38' W 001°05'0 0.0
2016-Aug-22 15:31N 50°38' W 001°05'0 0.1
2016-Aug-22 14:25N 50°38' W 001°05'0 0.3
2016-Aug-22 13:31N 50°38' W 001°04'0 0.0
2016-Aug-22 12:31N 50°38' W 001°04'0 0.0
2016-Aug-22 11:31N 50°38' W 001°04'0 0.0
2016-Aug-22 10:31N 50°38' W 001°04'0 0.0
2016-Aug-22 09:31N 50°38' W 001°04'0 0.0
2016-Aug-22 08:31N 50°38' W 001°04'0 0.0
2016-Aug-22 07:31N 50°38' W 001°04'0 0.1
2016-Aug-22 06:31N 50°38' W 001°04'0 0.2
2016-Aug-22 05:31N 50°38' W 001°05'0 0.0
2016-Aug-22 04:31N 50°38' W 001°05'0 0.1
2016-Aug-22 03:31N 50°38' W 001°05'0 0.0
2016-Aug-22 02:31N 50°38' W 001°05'0 0.3
2016-Aug-22 01:31N 50°38' W 001°04'0 0.0
2016-Aug-22 00:31N 50°38' W 001°04'0 0.0
2016-Aug-21 23:31N 50°38' W 001°04'2 2.3
2016-Aug-21 22:33N 50°38' W 001°01'1313.4
2016-Aug-21 21:34N 50°34' W 000°40'1514.7
2016-Aug-21 20:34N 50°30' W 000°18'1716.8
2016-Aug-21 19:33N 50°32' E 000°08'1918.1
2016-Aug-21 18:31N 50°38' E 000°36'  
Track history (hours):
 
Tides and Currents Weather Stations Pressure Air Temp Water Temp Dewpoint Dewpoint Depression Visibility Wind Speed Wind Dir Waves Ship Positions

Windhoek

Last reported at 2016-Aug-31 17:27 UTC. Time now 2016-Aug-31 23:34 UTC.
Position N 53°59' W 005°10'.

Length 172 m; draft 7.7 m.

Type: Ship (hazmat cat C). MMSI: 370431000.

Date/timePositionNaut miles runAvg speedWind from/ knotsBaromVisibWave heightAir tempDewpointWater temp
2016-Aug-31 17:27N 53°59' W 005°10'1516.5
2016-Aug-31 16:33N 54°13' W 005°08'1717.0
2016-Aug-31 15:33N 54°30' W 005°09'1615.8
2016-Aug-31 14:33N 54°45' W 005°18'1414.0
2016-Aug-31 13:33N 54°59' W 005°22'62 4.3
2016-Aug-30 23:16N 55°58' W 004°53'1 1.5
2016-Aug-30 22:33N 55°58' W 004°51'8 7.0
2016-Aug-30 21:23N 55°50' W 004°57'15 1.2
2016-Aug-30 09:09N 55°36' W 005°07'3 0.3
2016-Aug-29 21:33N 55°34' W 005°02'3316.7
2016-Aug-29 19:34N 55°03' W 005°20'1818.1
2016-Aug-29 18:33N 54°47' W 005°35'1212.2
2016-Aug-29 17:33N 54°39' W 005°52'1 1.2
2016-Aug-29 16:25N 54°38' W 005°53'0 0.0
2016-Aug-29 15:07N 54°38' W 005°53'0 0.0
2016-Aug-29 14:31N 54°38' W 005°53'0 0.0
2016-Aug-29 13:31N 54°38' W 005°53'0 0.0
2016-Aug-29 12:28N 54°38' W 005°53'0 0.0
2016-Aug-29 11:25N 54°38' W 005°53'0 0.0
2016-Aug-29 10:25N 54°38' W 005°53'0 0.0
2016-Aug-29 09:31N 54°38' W 005°53'0 0.0
2016-Aug-29 08:31N 54°38' W 005°53'0 0.0
2016-Aug-29 07:31N 54°38' W 005°53'0 0.0
2016-Aug-29 06:31N 54°38' W 005°53'0 0.0
2016-Aug-29 04:28N 54°38' W 005°53'0 0.5
2016-Aug-29 03:34N 54°38' W 005°52'8 8.3
2016-Aug-29 02:34N 54°43' W 005°40'1111.0
2016-Aug-29 01:34N 54°41' W 005°22'1515.2
2016-Aug-29 00:33N 54°28' W 005°08'1414.0
2016-Aug-28 23:34N 54°14' W 005°06'1715.1
2016-Aug-28 22:28N 53°59' W 005°19'1715.1
2016-Aug-28 21:19N 53°44' W 005°33'18 0.8
2016-Aug-27 21:17N 53°26' W 005°42'2915.9
2016-Aug-27 19:26N 53°37' W 004°56'2115.3
2016-Aug-27 18:03N 53°35' W 004°20'715.0
2016-Aug-27 17:33N 53°35' W 004°07'1515.0
2016-Aug-27 16:33N 53°34' W 003°42'1616.0
2016-Aug-27 15:33N 53°31' W 003°15'9 8.8
2016-Aug-27 14:33N 53°27' W 003°02'1 0.8
2016-Aug-27 13:33N 53°27' W 003°01'1 0.6
2016-Aug-27 12:33N 53°28' W 003°02'0 0.0
2016-Aug-27 11:33N 53°28' W 003°02'0 0.0
2016-Aug-27 10:33N 53°28' W 003°02'0 0.0
2016-Aug-27 09:30N 53°28' W 003°02'0 0.0
2016-Aug-27 08:33N 53°28' W 003°02'0 0.0
2016-Aug-27 07:33N 53°28' W 003°02'0 0.0
2016-Aug-27 06:27N 53°28' W 003°02'0 0.0
2016-Aug-27 04:33N 53°28' W 003°02'0 0.0
2016-Aug-27 03:33N 53°28' W 003°02'0 0.0
2016-Aug-27 02:33N 53°28' W 003°02'0 0.0
2016-Aug-27 01:30N 53°28' W 003°02'0 0.0
2016-Aug-27 00:33N 53°28' W 003°02'0 0.0
2016-Aug-26 23:30N 53°28' W 003°02'0 0.0
2016-Aug-26 22:33N 53°28' W 003°02'0 0.0
2016-Aug-26 21:30N 53°28' W 003°02'0 0.0
2016-Aug-26 20:33N 53°28' W 003°02'0 0.0
2016-Aug-26 19:30N 53°28' W 003°02'0 0.0
2016-Aug-26 18:33N 53°28' W 003°02'0 0.0
2016-Aug-26 17:33N 53°28' W 003°02'0 0.0
2016-Aug-26 16:30N 53°28' W 003°02'0 0.0
2016-Aug-26 15:24N 53°28' W 003°02'0 0.0
2016-Aug-26 14:33N 53°28' W 003°02'0 0.0
2016-Aug-26 13:33N 53°28' W 003°02'0 0.0
2016-Aug-26 12:33N 53°28' W 003°02'0 0.0
2016-Aug-26 11:33N 53°28' W 003°02'0 0.0
2016-Aug-26 10:33N 53°28' W 003°02'0 0.0
2016-Aug-26 09:27N 53°28' W 003°02'0 0.0
2016-Aug-26 08:30N 53°28' W 003°02'0 0.0
2016-Aug-26 07:33N 53°28' W 003°02'0 0.0
2016-Aug-26 06:33N 53°28' W 003°02'0 0.0
2016-Aug-26 04:33N 53°28' W 003°02'0 0.0
2016-Aug-26 03:33N 53°28' W 003°02'0 0.0
2016-Aug-26 02:33N 53°28' W 003°02'0 0.3
2016-Aug-26 01:33N 53°27' W 003°01'1 0.6
2016-Aug-26 00:33N 53°27' W 003°01'3 3.4
2016-Aug-25 23:33N 53°29' W 003°05'8 7.9
2016-Aug-25 22:34N 53°31' W 003°18'6 5.4
2016-Aug-25 21:32N 53°28' W 003°26'0 0.0
2016-Aug-25 20:32N 53°28' W 003°26'0 0.0
2016-Aug-25 19:32N 53°28' W 003°26'0 0.0
2016-Aug-25 18:29N 53°28' W 003°26'0 0.0
2016-Aug-25 17:32N 53°28' W 003°26'0 0.0
2016-Aug-25 16:32N 53°28' W 003°26'0 0.1
2016-Aug-25 15:33N 53°28' W 003°25'6 6.4
2016-Aug-25 14:33N 53°31' W 003°36'1615.6
2016-Aug-25 13:33N 53°30' W 004°02'2019.8
2016-Aug-25 12:33N 53°29' W 004°35'2019.5
2016-Aug-25 11:33N 53°16' W 004°59'9217.3
2016-Aug-25 06:12N 51°49' W 005°48'2917.6
2016-Aug-25 04:33N 51°20' W 005°53'1818.3
2016-Aug-25 03:33N 51°02' W 005°53'1818.0
2016-Aug-25 02:33N 50°43' W 005°54'1817.8
2016-Aug-25 01:33N 50°26' W 005°54'1717.3
2016-Aug-25 00:33N 50°08' W 005°54'1514.3
2016-Aug-24 23:32N 49°54' W 005°47'1718.0
2016-Aug-24 22:33N 49°54' W 005°20'1817.8
2016-Aug-24 21:33N 49°55' W 004°53'1818.0
2016-Aug-24 20:33N 49°55' W 004°25'1818.2
2016-Aug-24 19:33N 49°55' W 003°56'1919.2
2016-Aug-24 18:33N 49°55' W 003°26'2020.0
2016-Aug-24 17:33N 49°59' W 002°56'2120.7
2016-Aug-24 16:33N 50°06' W 002°25'3918.7
2016-Aug-24 14:29N 50°17' W 001°28'1617.2
2016-Aug-24 13:33N 50°29' W 001°11'1515.0
2016-Aug-24 12:33N 50°41' W 000°58'1212.1
2016-Aug-24 11:33N 50°46' W 001°15'9 8.7
2016-Aug-24 10:33N 50°53' W 001°24'3 2.7
2016-Aug-24 09:33N 50°54' W 001°28'0 0.0
2016-Aug-24 08:33N 50°54' W 001°28'0 0.0
2016-Aug-24 07:30N 50°54' W 001°28'0 0.0
2016-Aug-24 06:33N 50°54' W 001°28'0 0.0
2016-Aug-24 04:06N 50°54' W 001°28'0 0.0
2016-Aug-24 03:33N 50°54' W 001°28'0 0.0
2016-Aug-24 02:33N 50°54' W 001°28'0 0.0
2016-Aug-24 01:33N 50°54' W 001°28'0 0.0
2016-Aug-24 00:33N 50°54' W 001°28'0 0.0
2016-Aug-23 23:30N 50°54' W 001°28'0 0.0
2016-Aug-23 22:33N 50°54' W 001°28'0 0.0
2016-Aug-23 21:33N 50°54' W 001°28'0 0.0
2016-Aug-23 20:33N 50°54' W 001°28'1 0.8
2016-Aug-23 19:33N 50°54' W 001°26'8 7.9
2016-Aug-23 18:33N 50°49' W 001°18'1010.5
2016-Aug-23 17:33N 50°44' W 001°03'6 5.5
2016-Aug-23 16:33N 50°38' W 001°02'2 1.9
2016-Aug-23 15:31N 50°38' W 001°05'0 0.1
2016-Aug-23 14:28N 50°38' W 001°05'0 0.1
2016-Aug-23 13:31N 50°38' W 001°04'0 0.1
2016-Aug-23 12:31N 50°38' W 001°04'0 0.0
2016-Aug-23 11:31N 50°38' W 001°04'0 0.0
2016-Aug-23 10:31N 50°38' W 001°04'0 0.0
2016-Aug-23 09:31N 50°38' W 001°04'0 0.1
2016-Aug-23 08:31N 50°38' W 001°04'0 0.2
2016-Aug-23 07:31N 50°38' W 001°05'0 0.0
2016-Aug-23 06:31N 50°38' W 001°05'0 0.0
2016-Aug-23 05:31N 50°38' W 001°05'0 0.0
2016-Aug-23 04:31N 50°38' W 001°05'0 0.0
2016-Aug-23 03:31N 50°38' W 001°05'0 0.1
2016-Aug-23 02:31N 50°38' W 001°05'0 0.1
2016-Aug-23 01:31N 50°38' W 001°04'0 0.1
2016-Aug-23 00:31N 50°38' W 001°04'0 0.0
2016-Aug-22 23:31N 50°38' W 001°04'0 0.0
2016-Aug-22 22:31N 50°38' W 001°04'0 0.0
2016-Aug-22 21:31N 50°38' W 001°04'0 0.0
2016-Aug-22 20:31N 50°38' W 001°04'0 0.0
2016-Aug-22 19:31N 50°38' W 001°04'0 0.2
2016-Aug-22 18:31N 50°38' W 001°05'0 0.0
2016-Aug-22 17:31N 50°38' W 001°05'0 0.0
2016-Aug-22 16:31N 50°38' W 001°05'0 0.0
2016-Aug-22 15:31N 50°38' W 001°05'0 0.1
2016-Aug-22 14:25N 50°38' W 001°05'0 0.3
2016-Aug-22 13:31N 50°38' W 001°04'0 0.0
2016-Aug-22 12:31N 50°38' W 001°04'0 0.0
2016-Aug-22 11:31N 50°38' W 001°04'0 0.0
2016-Aug-22 10:31N 50°38' W 001°04'0 0.0
2016-Aug-22 09:31N 50°38' W 001°04'0 0.0
2016-Aug-22 08:31N 50°38' W 001°04'0 0.0
2016-Aug-22 07:31N 50°38' W 001°04'0 0.1
2016-Aug-22 06:31N 50°38' W 001°04'0 0.2
2016-Aug-22 05:31N 50°38' W 001°05'0 0.0
2016-Aug-22 04:31N 50°38' W 001°05'0 0.1
2016-Aug-22 03:31N 50°38' W 001°05'0 0.0
2016-Aug-22 02:31N 50°38' W 001°05'0 0.3
2016-Aug-22 01:31N 50°38' W 001°04'0 0.0
2016-Aug-22 00:31N 50°38' W 001°04'0 0.0
2016-Aug-21 23:31N 50°38' W 001°04'2 2.3
2016-Aug-21 22:33N 50°38' W 001°01'1313.4
2016-Aug-21 21:34N 50°34' W 000°40'1514.7
2016-Aug-21 20:34N 50°30' W 000°18'1716.8
2016-Aug-21 19:33N 50°32' E 000°08'1918.1
2016-Aug-21 18:31N 50°38' E 000°36'  

Dump ship's entire track history